sensor_id;sensor_type;location;lat;lon;timestamp;pressure;altitude;pressure_sealevel;temperature;humidity
55460;BME280;41326;45.302;-122.946;2023-12-20T00:02:09;99826.79;;;18.42;56.92
55460;BME280;41326;45.302;-122.946;2023-12-20T00:04:39;99828.70;;;18.43;56.87
55460;BME280;41326;45.302;-122.946;2023-12-20T00:07:09;99825.73;;;18.43;56.88
55460;BME280;41326;45.302;-122.946;2023-12-20T00:09:39;99828.62;;;18.46;56.90
55460;BME280;41326;45.302;-122.946;2023-12-20T00:12:09;99833.78;;;18.47;56.96
55460;BME280;41326;45.302;-122.946;2023-12-20T00:14:39;99835.99;;;18.42;57.26
55460;BME280;41326;45.302;-122.946;2023-12-20T00:17:09;99837.64;;;18.47;57.13
55460;BME280;41326;45.302;-122.946;2023-12-20T00:19:39;99842.12;;;18.41;57.47
55460;BME280;41326;45.302;-122.946;2023-12-20T00:22:09;99843.63;;;18.41;57.44
55460;BME280;41326;45.302;-122.946;2023-12-20T00:24:39;99843.20;;;18.40;57.49
55460;BME280;41326;45.302;-122.946;2023-12-20T00:27:09;99848.16;;;18.40;57.48
55460;BME280;41326;45.302;-122.946;2023-12-20T00:29:40;99852.79;;;18.36;57.58
55460;BME280;41326;45.302;-122.946;2023-12-20T00:32:10;99863.06;;;18.34;57.58
55460;BME280;41326;45.302;-122.946;2023-12-20T00:34:40;99867.93;;;18.39;57.35
55460;BME280;41326;45.302;-122.946;2023-12-20T00:37:10;99869.53;;;18.38;57.30
55460;BME280;41326;45.302;-122.946;2023-12-20T00:39:40;99874.73;;;18.36;57.39
55460;BME280;41326;45.302;-122.946;2023-12-20T00:42:10;99880.66;;;18.36;57.38
55460;BME280;41326;45.302;-122.946;2023-12-20T00:44:40;99883.06;;;18.36;57.34
55460;BME280;41326;45.302;-122.946;2023-12-20T00:47:10;99886.78;;;18.36;57.31
55460;BME280;41326;45.302;-122.946;2023-12-20T00:49:40;99888.48;;;18.34;57.37
55460;BME280;41326;45.302;-122.946;2023-12-20T00:52:10;99892.71;;;18.32;57.37
55460;BME280;41326;45.302;-122.946;2023-12-20T00:54:40;99899.28;;;18.29;57.39
55460;BME280;41326;45.302;-122.946;2023-12-20T00:57:11;99899.95;;;18.29;57.39
55460;BME280;41326;45.302;-122.946;2023-12-20T00:59:41;99898.71;;;18.32;57.26
55460;BME280;41326;45.302;-122.946;2023-12-20T01:02:10;99892.28;;;18.41;57.04
55460;BME280;41326;45.302;-122.946;2023-12-20T01:04:40;99891.86;;;18.56;56.73
55460;BME280;41326;45.302;-122.946;2023-12-20T01:07:10;99891.07;;;18.69;56.54
55460;BME280;41326;45.302;-122.946;2023-12-20T01:09:41;99895.02;;;18.67;56.65
55460;BME280;41326;45.302;-122.946;2023-12-20T01:12:11;99897.08;;;18.66;56.68
55460;BME280;41326;45.302;-122.946;2023-12-20T01:14:41;99901.72;;;18.69;56.74
55460;BME280;41326;45.302;-122.946;2023-12-20T01:17:11;99907.32;;;18.65;57.32
55460;BME280;41326;45.302;-122.946;2023-12-20T01:19:41;99905.82;;;18.64;57.62
55460;BME280;41326;45.302;-122.946;2023-12-20T01:22:11;99915.12;;;18.60;57.81
55460;BME280;41326;45.302;-122.946;2023-12-20T01:24:41;99917.55;;;18.56;57.89
55460;BME280;41326;45.302;-122.946;2023-12-20T01:27:11;99924.20;;;18.53;58.11
55460;BME280;41326;45.302;-122.946;2023-12-20T01:29:41;99936.77;;;18.54;58.20
55460;BME280;41326;45.302;-122.946;2023-12-20T01:32:11;99943.89;;;18.51;58.22
55460;BME280;41326;45.302;-122.946;2023-12-20T01:34:41;99944.55;;;18.50;58.14
55460;BME280;41326;45.302;-122.946;2023-12-20T01:37:11;99942.62;;;18.51;58.05
55460;BME280;41326;45.302;-122.946;2023-12-20T01:39:41;99942.66;;;18.49;58.05
55460;BME280;41326;45.302;-122.946;2023-12-20T01:42:11;99945.84;;;18.50;57.98
55460;BME280;41326;45.302;-122.946;2023-12-20T01:44:42;99954.61;;;18.51;57.94
55460;BME280;41326;45.302;-122.946;2023-12-20T01:47:12;99958.24;;;18.51;57.88
55460;BME280;41326;45.302;-122.946;2023-12-20T01:49:42;99960.03;;;18.51;57.89
55460;BME280;41326;45.302;-122.946;2023-12-20T01:52:12;99958.99;;;18.47;57.98
55460;BME280;41326;45.302;-122.946;2023-12-20T01:54:43;99958.90;;;18.45;58.07
55460;BME280;41326;45.302;-122.946;2023-12-20T01:57:12;99954.63;;;18.48;57.93
55460;BME280;41326;45.302;-122.946;2023-12-20T01:59:43;99952.03;;;18.44;58.02
55460;BME280;41326;45.302;-122.946;2023-12-20T02:02:12;99954.64;;;18.44;58.02
55460;BME280;41326;45.302;-122.946;2023-12-20T02:04:42;99953.14;;;18.45;58.00
55460;BME280;41326;45.302;-122.946;2023-12-20T02:07:12;99952.30;;;18.43;58.03
55460;BME280;41326;45.302;-122.946;2023-12-20T02:09:42;99952.27;;;18.44;58.01
55460;BME280;41326;45.302;-122.946;2023-12-20T02:12:12;99955.51;;;18.40;58.16
55460;BME280;41326;45.302;-122.946;2023-12-20T02:14:42;99960.87;;;18.39;58.21
55460;BME280;41326;45.302;-122.946;2023-12-20T02:17:13;99963.11;;;18.39;58.20
55460;BME280;41326;45.302;-122.946;2023-12-20T02:19:43;99967.51;;;18.40;58.19
55460;BME280;41326;45.302;-122.946;2023-12-20T02:22:13;99968.92;;;18.38;58.28
55460;BME280;41326;45.302;-122.946;2023-12-20T02:24:43;99973.20;;;18.38;58.26
55460;BME280;41326;45.302;-122.946;2023-12-20T02:27:13;99974.80;;;18.36;58.33
55460;BME280;41326;45.302;-122.946;2023-12-20T02:29:43;99978.26;;;18.37;58.28
55460;BME280;41326;45.302;-122.946;2023-12-20T02:32:13;99983.52;;;18.33;58.57
55460;BME280;41326;45.302;-122.946;2023-12-20T02:34:43;99987.71;;;18.37;58.51
55460;BME280;41326;45.302;-122.946;2023-12-20T02:37:13;99988.97;;;18.34;58.78
55460;BME280;41326;45.302;-122.946;2023-12-20T02:39:43;99993.48;;;18.33;58.90
55460;BME280;41326;45.302;-122.946;2023-12-20T02:42:14;99996.41;;;18.32;58.88
55460;BME280;41326;45.302;-122.946;2023-12-20T02:44:44;100000.40;;;18.32;59.02
55460;BME280;41326;45.302;-122.946;2023-12-20T02:47:14;100002.16;;;18.34;58.96
55460;BME280;41326;45.302;-122.946;2023-12-20T02:49:44;100006.49;;;18.36;58.92
55460;BME280;41326;45.302;-122.946;2023-12-20T02:52:14;100010.14;;;18.31;59.10
55460;BME280;41326;45.302;-122.946;2023-12-20T02:54:45;100008.02;;;18.35;58.97
55460;BME280;41326;45.302;-122.946;2023-12-20T02:57:15;100010.49;;;18.35;58.95
55460;BME280;41326;45.302;-122.946;2023-12-20T02:59:46;100010.61;;;18.35;59.12
55460;BME280;41326;45.302;-122.946;2023-12-20T03:02:16;100014.96;;;18.39;59.76
55460;BME280;41326;45.302;-122.946;2023-12-20T03:04:46;100022.35;;;18.48;59.74
55460;BME280;41326;45.302;-122.946;2023-12-20T03:07:16;100031.23;;;18.62;59.39
55460;BME280;41326;45.302;-122.946;2023-12-20T03:09:46;100035.61;;;18.67;59.61
55460;BME280;41326;45.302;-122.946;2023-12-20T03:12:16;100041.74;;;18.70;59.97
55460;BME280;41326;45.302;-122.946;2023-12-20T03:14:46;100046.07;;;18.71;60.11
55460;BME280;41326;45.302;-122.946;2023-12-20T03:17:16;100047.42;;;18.70;60.95
55460;BME280;41326;45.302;-122.946;2023-12-20T03:19:47;100047.43;;;18.71;62.14
55460;BME280;41326;45.302;-122.946;2023-12-20T03:22:17;100049.53;;;18.70;63.09
55460;BME280;41326;45.302;-122.946;2023-12-20T03:24:47;100054.22;;;18.74;62.65
55460;BME280;41326;45.302;-122.946;2023-12-20T03:27:18;100057.17;;;18.73;62.69
55460;BME280;41326;45.302;-122.946;2023-12-20T03:29:48;100058.69;;;18.69;62.78
55460;BME280;41326;45.302;-122.946;2023-12-20T03:32:18;100070.39;;;18.69;63.14
55460;BME280;41326;45.302;-122.946;2023-12-20T03:34:48;100077.90;;;18.67;63.33
55460;BME280;41326;45.302;-122.946;2023-12-20T03:37:18;100079.78;;;18.73;64.01
55460;BME280;41326;45.302;-122.946;2023-12-20T03:39:48;100074.92;;;18.79;63.98
55460;BME280;41326;45.302;-122.946;2023-12-20T03:42:19;100070.94;;;18.82;63.91
55460;BME280;41326;45.302;-122.946;2023-12-20T03:44:49;100067.72;;;18.83;64.14
55460;BME280;41326;45.302;-122.946;2023-12-20T03:47:19;100066.42;;;18.82;63.41
55460;BME280;41326;45.302;-122.946;2023-12-20T03:49:49;100070.79;;;18.81;63.17
55460;BME280;41326;45.302;-122.946;2023-12-20T03:52:19;100075.87;;;18.79;63.38
55460;BME280;41326;45.302;-122.946;2023-12-20T03:54:49;100075.93;;;18.80;63.55
55460;BME280;41326;45.302;-122.946;2023-12-20T03:57:20;100077.11;;;18.79;63.58
55460;BME280;41326;45.302;-122.946;2023-12-20T03:59:50;100083.94;;;18.76;63.47
55460;BME280;41326;45.302;-122.946;2023-12-20T04:02:20;100087.82;;;18.75;63.20
55460;BME280;41326;45.302;-122.946;2023-12-20T04:04:50;100089.02;;;18.76;63.11
55460;BME280;41326;45.302;-122.946;2023-12-20T04:07:20;100091.12;;;18.69;63.12
55460;BME280;41326;45.302;-122.946;2023-12-20T04:09:50;100092.42;;;18.67;63.06
55460;BME280;41326;45.302;-122.946;2023-12-20T04:12:20;100091.12;;;18.69;62.93
55460;BME280;41326;45.302;-122.946;2023-12-20T04:14:50;100089.44;;;18.68;62.78
55460;BME280;41326;45.302;-122.946;2023-12-20T04:17:21;100089.54;;;18.65;62.95
55460;BME280;41326;45.302;-122.946;2023-12-20T04:19:51;100086.21;;;18.64;63.33
55460;BME280;41326;45.302;-122.946;2023-12-20T04:22:21;100086.88;;;18.63;63.43
55460;BME280;41326;45.302;-122.946;2023-12-20T04:24:51;100086.27;;;18.63;63.13
55460;BME280;41326;45.302;-122.946;2023-12-20T04:27:21;100088.90;;;18.61;62.97
55460;BME280;41326;45.302;-122.946;2023-12-20T04:29:51;100088.02;;;18.59;62.93
55460;BME280;41326;45.302;-122.946;2023-12-20T04:32:21;100083.85;;;18.59;62.68
55460;BME280;41326;45.302;-122.946;2023-12-20T04:34:51;100089.52;;;18.61;62.37
55460;BME280;41326;45.302;-122.946;2023-12-20T04:37:21;100091.27;;;18.61;62.14
55460;BME280;41326;45.302;-122.946;2023-12-20T04:39:51;100094.57;;;18.62;61.99
55460;BME280;41326;45.302;-122.946;2023-12-20T04:42:21;100093.05;;;18.60;61.95
55460;BME280;41326;45.302;-122.946;2023-12-20T04:44:51;100094.45;;;18.55;62.00
55460;BME280;41326;45.302;-122.946;2023-12-20T04:47:21;100095.34;;;18.54;61.96
55460;BME280;41326;45.302;-122.946;2023-12-20T04:49:51;100095.39;;;18.57;61.78
55460;BME280;41326;45.302;-122.946;2023-12-20T04:52:22;100100.74;;;18.51;61.84
55460;BME280;41326;45.302;-122.946;2023-12-20T04:54:52;100106.86;;;18.51;61.93
55460;BME280;41326;45.302;-122.946;2023-12-20T04:57:22;100113.65;;;18.51;61.83
55460;BME280;41326;45.302;-122.946;2023-12-20T04:59:53;100110.05;;;18.51;61.74
55460;BME280;41326;45.302;-122.946;2023-12-20T05:02:22;100105.11;;;18.52;61.66
55460;BME280;41326;45.302;-122.946;2023-12-20T05:04:53;100105.31;;;18.52;61.63
55460;BME280;41326;45.302;-122.946;2023-12-20T05:07:23;100106.26;;;18.48;61.67
55460;BME280;41326;45.302;-122.946;2023-12-20T05:09:53;100110.26;;;18.48;61.61
55460;BME280;41326;45.302;-122.946;2023-12-20T05:12:23;100118.59;;;18.48;61.59
55460;BME280;41326;45.302;-122.946;2023-12-20T05:14:53;100121.95;;;18.44;61.75
55460;BME280;41326;45.302;-122.946;2023-12-20T05:17:23;100124.33;;;18.44;61.67
55460;BME280;41326;45.302;-122.946;2023-12-20T05:19:53;100126.44;;;18.43;61.72
55460;BME280;41326;45.302;-122.946;2023-12-20T05:22:23;100132.28;;;18.38;61.80
55460;BME280;41326;45.302;-122.946;2023-12-20T05:24:53;100136.82;;;18.39;61.73
55460;BME280;41326;45.302;-122.946;2023-12-20T05:27:23;100137.44;;;18.40;61.70
55460;BME280;41326;45.302;-122.946;2023-12-20T05:29:53;100142.38;;;18.36;61.79
55460;BME280;41326;45.302;-122.946;2023-12-20T05:32:23;100153.53;;;18.38;61.68
55460;BME280;41326;45.302;-122.946;2023-12-20T05:34:54;100153.95;;;18.35;61.76
55460;BME280;41326;45.302;-122.946;2023-12-20T05:37:24;100154.18;;;18.32;61.85
55460;BME280;41326;45.302;-122.946;2023-12-20T05:39:54;100151.38;;;18.38;61.55
55460;BME280;41326;45.302;-122.946;2023-12-20T05:42:24;100157.92;;;18.35;61.62
55460;BME280;41326;45.302;-122.946;2023-12-20T05:44:54;100161.67;;;18.33;61.64
55460;BME280;41326;45.302;-122.946;2023-12-20T05:47:24;100162.52;;;18.36;61.50
55460;BME280;41326;45.302;-122.946;2023-12-20T05:49:55;100163.08;;;18.32;61.56
55460;BME280;41326;45.302;-122.946;2023-12-20T05:52:25;100165.01;;;18.31;61.58
55460;BME280;41326;45.302;-122.946;2023-12-20T05:54:55;100161.11;;;18.33;61.54
55460;BME280;41326;45.302;-122.946;2023-12-20T05:57:25;100163.98;;;18.33;61.47
55460;BME280;41326;45.302;-122.946;2023-12-20T05:59:55;100162.34;;;18.35;61.42
55460;BME280;41326;45.302;-122.946;2023-12-20T06:02:25;100162.12;;;18.42;61.26
55460;BME280;41326;45.302;-122.946;2023-12-20T06:04:55;100160.43;;;18.52;61.07
55460;BME280;41326;45.302;-122.946;2023-12-20T06:07:25;100159.60;;;18.60;60.86
55460;BME280;41326;45.302;-122.946;2023-12-20T06:09:55;100160.66;;;18.61;60.70
55460;BME280;41326;45.302;-122.946;2023-12-20T06:12:25;100161.76;;;18.60;60.68
55460;BME280;41326;45.302;-122.946;2023-12-20T06:14:55;100161.68;;;18.56;60.75
55460;BME280;41326;45.302;-122.946;2023-12-20T06:17:25;100164.29;;;18.56;60.69
55460;BME280;41326;45.302;-122.946;2023-12-20T06:19:55;100168.81;;;18.54;60.69
55460;BME280;41326;45.302;-122.946;2023-12-20T06:22:25;100170.36;;;18.54;60.66
55460;BME280;41326;45.302;-122.946;2023-12-20T06:24:55;100173.99;;;18.52;60.67
55460;BME280;41326;45.302;-122.946;2023-12-20T06:27:26;100178.81;;;18.52;60.59
55460;BME280;41326;45.302;-122.946;2023-12-20T06:29:56;100182.70;;;18.51;60.54
55460;BME280;41326;45.302;-122.946;2023-12-20T06:32:26;100184.65;;;18.50;60.46
55460;BME280;41326;45.302;-122.946;2023-12-20T06:34:56;100190.47;;;18.51;60.37
55460;BME280;41326;45.302;-122.946;2023-12-20T06:37:26;100203.23;;;18.45;60.49
55460;BME280;41326;45.302;-122.946;2023-12-20T06:39:56;100211.74;;;18.38;60.67
55460;BME280;41326;45.302;-122.946;2023-12-20T06:42:26;100219.49;;;18.36;60.64
55460;BME280;41326;45.302;-122.946;2023-12-20T06:44:56;100222.43;;;18.35;60.63
55460;BME280;41326;45.302;-122.946;2023-12-20T06:47:26;100227.72;;;18.33;60.69
55460;BME280;41326;45.302;-122.946;2023-12-20T06:49:56;100228.30;;;18.42;60.41
55460;BME280;41326;45.302;-122.946;2023-12-20T06:52:26;100230.51;;;18.53;60.17
55460;BME280;41326;45.302;-122.946;2023-12-20T06:54:56;100233.12;;;18.61;59.82
55460;BME280;41326;45.302;-122.946;2023-12-20T06:57:26;100235.61;;;18.61;59.74
55460;BME280;41326;45.302;-122.946;2023-12-20T06:59:57;100235.20;;;18.59;59.74
55460;BME280;41326;45.302;-122.946;2023-12-20T07:02:27;100235.97;;;18.55;59.80
55460;BME280;41326;45.302;-122.946;2023-12-20T07:04:57;100237.20;;;18.49;59.92
55460;BME280;41326;45.302;-122.946;2023-12-20T07:07:27;100242.09;;;18.44;60.01
55460;BME280;41326;45.302;-122.946;2023-12-20T07:09:57;100239.98;;;18.43;60.02
55460;BME280;41326;45.302;-122.946;2023-12-20T07:12:27;100234.11;;;18.42;60.03
55460;BME280;41326;45.302;-122.946;2023-12-20T07:14:57;100231.37;;;18.39;60.11
55460;BME280;41326;45.302;-122.946;2023-12-20T07:17:27;100227.61;;;18.37;60.12
55460;BME280;41326;45.302;-122.946;2023-12-20T07:19:57;100225.99;;;18.33;60.17
55460;BME280;41326;45.302;-122.946;2023-12-20T07:22:27;100229.49;;;18.30;60.28
55460;BME280;41326;45.302;-122.946;2023-12-20T07:24:57;100236.46;;;18.29;60.30
55460;BME280;41326;45.302;-122.946;2023-12-20T07:27:27;100237.87;;;18.31;60.36
55460;BME280;41326;45.302;-122.946;2023-12-20T07:29:57;100233.80;;;18.38;60.26
55460;BME280;41326;45.302;-122.946;2023-12-20T07:32:28;100237.63;;;18.51;60.01
55460;BME280;41326;45.302;-122.946;2023-12-20T07:34:58;100242.25;;;18.57;59.85
55460;BME280;41326;45.302;-122.946;2023-12-20T07:37:28;100244.22;;;18.59;59.78
55460;BME280;41326;45.302;-122.946;2023-12-20T07:39:58;100246.07;;;18.54;59.88
55460;BME280;41326;45.302;-122.946;2023-12-20T07:42:28;100249.56;;;18.51;59.93
55460;BME280;41326;45.302;-122.946;2023-12-20T07:44:58;100251.80;;;18.48;60.03
55460;BME280;41326;45.302;-122.946;2023-12-20T07:47:28;100261.76;;;18.44;60.12
55460;BME280;41326;45.302;-122.946;2023-12-20T07:49:58;100268.31;;;18.42;60.13
55460;BME280;41326;45.302;-122.946;2023-12-20T07:52:28;100270.14;;;18.41;60.14
55460;BME280;41326;45.302;-122.946;2023-12-20T07:54:58;100276.64;;;18.40;60.14
55460;BME280;41326;45.302;-122.946;2023-12-20T07:57:29;100278.48;;;18.35;60.29
55460;BME280;41326;45.302;-122.946;2023-12-20T07:59:59;100275.41;;;18.34;60.28
55460;BME280;41326;45.302;-122.946;2023-12-20T08:02:28;100271.69;;;18.33;60.30
55460;BME280;41326;45.302;-122.946;2023-12-20T08:04:59;100264.12;;;18.39;60.24
55460;BME280;41326;45.302;-122.946;2023-12-20T08:07:29;100259.50;;;18.48;60.11
55460;BME280;41326;45.302;-122.946;2023-12-20T08:09:59;100257.23;;;18.58;59.83
55460;BME280;41326;45.302;-122.946;2023-12-20T08:12:29;100264.12;;;18.60;59.75
55460;BME280;41326;45.302;-122.946;2023-12-20T08:14:59;100266.45;;;18.64;59.63
55460;BME280;41326;45.302;-122.946;2023-12-20T08:17:29;100270.62;;;18.58;59.73
55460;BME280;41326;45.302;-122.946;2023-12-20T08:19:59;100274.27;;;18.57;59.71
55460;BME280;41326;45.302;-122.946;2023-12-20T08:22:29;100280.93;;;18.50;59.90
55460;BME280;41326;45.302;-122.946;2023-12-20T08:24:59;100287.31;;;18.44;60.02
55460;BME280;41326;45.302;-122.946;2023-12-20T08:27:29;100287.20;;;18.36;60.32
55460;BME280;41326;45.302;-122.946;2023-12-20T08:29:59;100288.65;;;18.34;60.33
55460;BME280;41326;45.302;-122.946;2023-12-20T08:32:29;100292.66;;;18.32;60.40
55460;BME280;41326;45.302;-122.946;2023-12-20T08:34:59;100298.05;;;18.32;60.49
55460;BME280;41326;45.302;-122.946;2023-12-20T08:37:31;100302.72;;;18.28;60.59
55460;BME280;41326;45.302;-122.946;2023-12-20T08:39:59;100305.29;;;18.30;60.55
55460;BME280;41326;45.302;-122.946;2023-12-20T08:42:30;100305.57;;;18.33;60.53
55460;BME280;41326;45.302;-122.946;2023-12-20T08:45:00;100305.66;;;18.47;60.25
55460;BME280;41326;45.302;-122.946;2023-12-20T08:47:30;100306.51;;;18.56;59.98
55460;BME280;41326;45.302;-122.946;2023-12-20T08:50:00;100308.52;;;18.57;59.91
55460;BME280;41326;45.302;-122.946;2023-12-20T08:52:30;100308.37;;;18.57;59.92
55460;BME280;41326;45.302;-122.946;2023-12-20T08:55:00;100307.62;;;18.56;59.91
55460;BME280;41326;45.302;-122.946;2023-12-20T08:57:30;100306.87;;;18.52;60.00
55460;BME280;41326;45.302;-122.946;2023-12-20T09:00:01;100302.46;;;18.50;60.00
55460;BME280;41326;45.302;-122.946;2023-12-20T09:02:30;100302.05;;;18.47;60.10
55460;BME280;41326;45.302;-122.946;2023-12-20T09:05:00;100299.89;;;18.46;60.09
55460;BME280;41326;45.302;-122.946;2023-12-20T09:07:31;100299.37;;;18.42;60.15
55460;BME280;41326;45.302;-122.946;2023-12-20T09:10:00;100301.56;;;18.38;60.26
55460;BME280;41326;45.302;-122.946;2023-12-20T09:12:30;100302.00;;;18.36;60.31
55460;BME280;41326;45.302;-122.946;2023-12-20T09:15:01;100299.46;;;18.33;60.37
55460;BME280;41326;45.302;-122.946;2023-12-20T09:17:31;100300.40;;;18.32;60.35
55460;BME280;41326;45.302;-122.946;2023-12-20T09:20:01;100308.29;;;18.30;60.40
55460;BME280;41326;45.302;-122.946;2023-12-20T09:22:31;100310.33;;;18.33;60.34
55460;BME280;41326;45.302;-122.946;2023-12-20T09:25:01;100307.47;;;18.38;60.23
55460;BME280;41326;45.302;-122.946;2023-12-20T09:27:31;100309.36;;;18.50;59.95
55460;BME280;41326;45.302;-122.946;2023-12-20T09:30:01;100316.89;;;18.55;59.84
55460;BME280;41326;45.302;-122.946;2023-12-20T09:32:31;100322.37;;;18.59;59.68
55460;BME280;41326;45.302;-122.946;2023-12-20T09:35:01;100323.00;;;18.59;59.67
55460;BME280;41326;45.302;-122.946;2023-12-20T09:37:31;100317.73;;;18.54;59.71
55460;BME280;41326;45.302;-122.946;2023-12-20T09:40:01;100318.26;;;18.50;59.82
55460;BME280;41326;45.302;-122.946;2023-12-20T09:42:37;100319.18;;;18.46;59.94
55460;BME280;41326;45.302;-122.946;2023-12-20T09:45:03;100322.66;;;18.46;59.92
55460;BME280;41326;45.302;-122.946;2023-12-20T09:47:31;100322.33;;;18.41;60.10
55460;BME280;41326;45.302;-122.946;2023-12-20T09:50:02;100323.81;;;18.37;60.24
55460;BME280;41326;45.302;-122.946;2023-12-20T09:52:32;100326.41;;;18.35;60.34
55460;BME280;41326;45.302;-122.946;2023-12-20T09:55:02;100328.12;;;18.37;60.28
55460;BME280;41326;45.302;-122.946;2023-12-20T09:57:32;100335.17;;;18.37;60.22
55460;BME280;41326;45.302;-122.946;2023-12-20T10:00:03;100341.40;;;18.35;60.29
55460;BME280;41326;45.302;-122.946;2023-12-20T10:02:32;100345.13;;;18.34;60.25
55460;BME280;41326;45.302;-122.946;2023-12-20T10:05:03;100346.90;;;18.33;60.28
55460;BME280;41326;45.302;-122.946;2023-12-20T10:07:32;100346.90;;;18.40;60.10
55460;BME280;41326;45.302;-122.946;2023-12-20T10:10:03;100352.16;;;18.52;59.87
55460;BME280;41326;45.302;-122.946;2023-12-20T10:12:32;100356.85;;;18.61;59.62
55460;BME280;41326;45.302;-122.946;2023-12-20T10:15:03;100362.71;;;18.63;59.56
55460;BME280;41326;45.302;-122.946;2023-12-20T10:17:32;100360.90;;;18.61;59.59
55460;BME280;41326;45.302;-122.946;2023-12-20T10:20:03;100365.03;;;18.57;59.66
55460;BME280;41326;45.302;-122.946;2023-12-20T10:22:33;100371.85;;;18.54;59.72
55460;BME280;41326;45.302;-122.946;2023-12-20T10:25:03;100381.14;;;18.53;59.71
55460;BME280;41326;45.302;-122.946;2023-12-20T10:27:33;100386.38;;;18.46;59.89
55460;BME280;41326;45.302;-122.946;2023-12-20T10:30:03;100382.73;;;18.45;59.84
55460;BME280;41326;45.302;-122.946;2023-12-20T10:32:33;100389.69;;;18.42;59.86
55460;BME280;41326;45.302;-122.946;2023-12-20T10:35:03;100391.32;;;18.42;59.86
55460;BME280;41326;45.302;-122.946;2023-12-20T10:37:36;100395.55;;;18.39;59.89
55460;BME280;41326;45.302;-122.946;2023-12-20T10:40:05;100396.98;;;18.36;59.92
55460;BME280;41326;45.302;-122.946;2023-12-20T10:42:33;100389.44;;;18.37;59.91
55460;BME280;41326;45.302;-122.946;2023-12-20T10:45:04;100392.40;;;18.47;59.69
55460;BME280;41326;45.302;-122.946;2023-12-20T10:47:33;100402.58;;;18.59;59.43
55460;BME280;41326;45.302;-122.946;2023-12-20T10:50:06;100413.18;;;18.62;59.33
55460;BME280;41326;45.302;-122.946;2023-12-20T10:52:35;100421.89;;;18.64;59.25
55460;BME280;41326;45.302;-122.946;2023-12-20T10:55:04;100425.82;;;18.58;59.26
55460;BME280;41326;45.302;-122.946;2023-12-20T10:57:33;100426.91;;;18.54;59.37
55460;BME280;41326;45.302;-122.946;2023-12-20T11:00:06;100429.28;;;18.50;59.44
55460;BME280;41326;45.302;-122.946;2023-12-20T11:02:39;100426.72;;;18.44;59.62
55460;BME280;41326;45.302;-122.946;2023-12-20T11:05:10;100425.82;;;18.43;59.59
55460;BME280;41326;45.302;-122.946;2023-12-20T11:07:37;100423.41;;;18.40;59.69
55460;BME280;41326;45.302;-122.946;2023-12-20T11:10:10;100423.99;;;18.39;59.70
55460;BME280;41326;45.302;-122.946;2023-12-20T11:12:43;100426.41;;;18.44;59.61
55460;BME280;41326;45.302;-122.946;2023-12-20T11:15:05;100427.15;;;18.53;59.38
55460;BME280;41326;45.302;-122.946;2023-12-20T11:17:34;100429.12;;;18.65;59.14
55460;BME280;41326;45.302;-122.946;2023-12-20T11:20:08;100430.26;;;18.64;59.15
55460;BME280;41326;45.302;-122.946;2023-12-20T11:22:35;100433.12;;;18.64;59.12
55460;BME280;41326;45.302;-122.946;2023-12-20T11:25:06;100434.40;;;18.60;59.15
55460;BME280;41326;45.302;-122.946;2023-12-20T11:27:34;100429.69;;;18.55;59.26
55460;BME280;41326;45.302;-122.946;2023-12-20T11:30:05;100428.06;;;18.50;59.42
55460;BME280;41326;45.302;-122.946;2023-12-20T11:32:35;100427.06;;;18.51;59.35
55460;BME280;41326;45.302;-122.946;2023-12-20T11:37:37;100434.69;;;18.50;59.29
55460;BME280;41326;45.302;-122.946;2023-12-20T11:40:07;100437.24;;;18.38;59.64
55460;BME280;41326;45.302;-122.946;2023-12-20T11:42:38;100437.02;;;18.43;59.48
55460;BME280;41326;45.302;-122.946;2023-12-20T11:45:06;100433.92;;;18.47;59.42
55460;BME280;41326;45.302;-122.946;2023-12-20T11:47:35;100432.74;;;18.57;59.23
55460;BME280;41326;45.302;-122.946;2023-12-20T11:50:06;100426.89;;;18.62;59.11
55460;BME280;41326;45.302;-122.946;2023-12-20T11:52:35;100428.85;;;18.62;59.02
55460;BME280;41326;45.302;-122.946;2023-12-20T11:55:06;100428.89;;;18.64;58.94
55460;BME280;41326;45.302;-122.946;2023-12-20T11:57:36;100430.98;;;18.62;58.96
55460;BME280;41326;45.302;-122.946;2023-12-20T12:00:07;100432.82;;;18.52;59.21
55460;BME280;41326;45.302;-122.946;2023-12-20T12:02:35;100437.57;;;18.49;59.31
55460;BME280;41326;45.302;-122.946;2023-12-20T12:05:06;100441.11;;;18.48;59.30
55460;BME280;41326;45.302;-122.946;2023-12-20T12:07:36;100443.87;;;18.40;59.51
55460;BME280;41326;45.302;-122.946;2023-12-20T12:10:07;100440.82;;;18.39;59.49
55460;BME280;41326;45.302;-122.946;2023-12-20T12:12:36;100440.11;;;18.37;59.53
55460;BME280;41326;45.302;-122.946;2023-12-20T12:15:07;100442.00;;;18.37;59.56
55460;BME280;41326;45.302;-122.946;2023-12-20T12:17:36;100448.43;;;18.45;59.38
55460;BME280;41326;45.302;-122.946;2023-12-20T12:20:07;100453.71;;;18.54;59.25
55460;BME280;41326;45.302;-122.946;2023-12-20T12:22:36;100460.24;;;18.61;59.04
55460;BME280;41326;45.302;-122.946;2023-12-20T12:25:10;100464.15;;;18.60;59.00
55460;BME280;41326;45.302;-122.946;2023-12-20T12:27:36;100470.51;;;18.56;59.08
55460;BME280;41326;45.302;-122.946;2023-12-20T12:30:07;100475.68;;;18.53;59.12
55460;BME280;41326;45.302;-122.946;2023-12-20T12:32:36;100480.02;;;18.51;59.15
55460;BME280;41326;45.302;-122.946;2023-12-20T12:35:07;100489.17;;;18.51;59.10
55460;BME280;41326;45.302;-122.946;2023-12-20T12:37:38;100494.47;;;18.45;59.28
55460;BME280;41326;45.302;-122.946;2023-12-20T12:40:09;100494.33;;;18.37;59.49